Denver, Colorado
Traffic Map
Current Weather Conditions
Denver, Colorado
Clear
Clear
27°
Feels Like: 16°
Wind Chill: 16° Ceiling: Unl
Heat Index: 27° Visibility: 10mi
Dew Point: -1° Wind: 14mph
Humidity: 30% Direction: 200° (SSW)
Pressure: 30.21in Gusts: 0mph
Raw Report DataKDEN 101053Z 20012KT 10SM CLR M03/M18 A3021 RMK AO2 SLP237 T10281183
Traffic Incident Summary
Active as of:
Severity:
Category:
InformationThere was an issue retrieving the traffic information for this location. Please try a different location or try again shortly.
Advertisements